Upstream stations:
Downstream station:
SHEF ID: AMCO2 Cimarron River nr Ames 4SW
STATION TYPE:
Regulating: Stage = 7.50, Flow = 8992
PRECIP STAGE RIV-FLOW VOLTAGE BAT-LOAD
in ft cfs volt volt
Ccp-Rev Ccp-Rev Ccp-Rev Ccp-Rev Ccp-Rev
(US/Central)
04/03 00:00 0.00 3.97 480 ---- 12.83
04/03 01:00 0.00 3.98 483 ---- 12.80
04/03 02:00 0.00 3.98 483 ---- 12.77
04/03 03:00 0.00 3.95 474 ---- 12.73
04/03 04:00 0.00 3.96 477 ---- 12.71
04/03 05:00 0.00 3.96 477 ---- 12.70
04/03 06:00 0.00 3.94 472 ---- 12.67
04/03 07:00 0.00 3.96 477 ---- 12.67
04/03 08:00 0.00 3.94 472 ---- 12.74
04/03 09:00 0.00 3.97 480 ---- 13.35
04/03 10:00 0.00 3.96 477 ---- 13.31
04/03 11:00 0.00 3.94 472 ---- 13.33
04/03 12:00 0.00 3.93 469 ---- 13.33
04/03 13:00 0.00 3.89 457 ---- 13.34
04/03 14:00 0.00 3.92 466 ---- 13.34
04/03 15:00 0.00 3.90 460 ---- 13.32
04/03 16:00 0.00 3.89 457 ---- 13.30
04/03 17:00 0.00 3.93 469 ---- 13.26
04/03 18:00 0.00 3.89 457 ---- 13.23
04/03 19:00 0.00 3.92 466 ---- 13.22
04/03 20:00 0.00 3.94 472 ---- 13.09
04/03 21:00 0.00 3.93 469 ---- 12.96
04/03 22:00 0.00 3.93 469 ---- 12.90
04/03 23:00 ---- ---- ---- ---- ----